Time;durP1;ratioP1;P1;durP2;ratioP2;P2;SDS_P1;SDS_P2;PMS_P1;PMS_P2;Temp;Humidity;BMP_temperature;BMP_pressure;BME280_temperature;BME280_humidity;BME280_pressure;Samples;Min_cycle;Max_cycle;Signal;HPM_P1;HPM_P2
2022/12/11 00:00:17;;;;;;;0.50;0.50;;;;;;;-6.08;100.00;100528.38;5015992;28;20075;-77
2022/12/11 00:02:43;;;;;;;0.57;0.57;;;;;;;-6.08;100.00;100530.97;5016133;28;20038;-77
2022/12/11 00:05:09;;;;;;;0.50;0.50;;;;;;;-6.08;100.00;100539.69;4999949;28;20475;-77
2022/12/11 00:07:34;;;;;;;0.70;0.70;;;;;;;-6.15;100.00;100537.44;5016283;28;20041;-77
2022/12/11 00:10:00;;;;;;;1.70;1.60;;;;;;;-6.26;100.00;100536.19;5015880;28;20029;-77
2022/12/11 00:12:26;;;;;;;2.95;2.83;;;;;;;-6.34;100.00;100537.47;4999549;28;20029;-78
2022/12/11 00:14:52;;;;;;;1.30;1.25;;;;;;;-6.52;100.00;100526.97;5016136;28;20099;-78
2022/12/11 00:17:17;;;;;;;0.75;0.75;;;;;;;-6.52;100.00;100534.81;5016209;28;20025;-77
2022/12/11 00:19:43;;;;;;;0.50;0.50;;;;;;;-6.45;100.00;100532.75;5015854;28;20033;-77
2022/12/11 00:22:09;;;;;;;0.50;0.50;;;;;;;-6.46;100.00;100531.88;4999733;28;20423;-77
2022/12/11 00:24:35;;;;;;;0.50;0.50;;;;;;;-6.44;100.00;100540.50;4999703;28;20032;-77
2022/12/11 00:27:00;;;;;;;0.50;0.50;;;;;;;-6.48;100.00;100528.53;5016024;28;20032;-78
2022/12/11 00:29:26;;;;;;;0.50;0.50;;;;;;;-6.51;100.00;100523.44;4999674;28;20033;-76
2022/12/11 00:31:52;;;;;;;0.50;0.50;;;;;;;-6.47;100.00;100537.22;5015669;28;20195;-77
2022/12/11 00:34:18;;;;;;;0.75;0.75;;;;;;;-6.40;100.00;100546.47;5016018;28;20037;-77
2022/12/11 00:36:44;;;;;;;0.50;0.50;;;;;;;-6.35;100.00;100547.09;4999603;28;20068;-77
2022/12/11 00:39:09;;;;;;;0.50;0.50;;;;;;;-6.29;100.00;100541.56;4999327;28;20033;-78
2022/12/11 00:41:35;;;;;;;0.65;0.65;;;;;;;-6.24;100.00;100542.19;4999396;28;20132;-78
2022/12/11 00:44:02;;;;;;;0.50;0.50;;;;;;;-6.31;100.00;100535.56;4999641;28;20021;-77
2022/12/11 00:46:28;;;;;;;1.33;1.25;;;;;;;-6.26;100.00;100545.81;5015203;28;20489;-77
2022/12/11 00:48:54;;;;;;;0.50;0.50;;;;;;;-6.22;100.00;100545.59;5015707;28;20029;-76
2022/12/11 00:51:19;;;;;;;0.50;0.50;;;;;;;-6.16;100.00;100533.13;4999346;28;20125;-77
2022/12/11 00:53:45;;;;;;;0.50;0.50;;;;;;;-6.13;100.00;100532.97;4999526;28;20048;-77
2022/12/11 00:56:17;;;;;;;0.52;0.52;;;;;;;-6.09;100.00;100529.28;5015639;28;20557;-77
2022/12/11 00:58:43;;;;;;;0.50;0.50;;;;;;;-6.04;100.00;100525.50;5015319;28;20087;-77
2022/12/11 01:01:10;;;;;;;0.50;0.50;;;;;;;-6.04;100.00;100522.88;5015680;28;20033;-76
2022/12/11 01:03:36;;;;;;;0.50;0.50;;;;;;;-6.09;100.00;100522.25;5015694;28;20025;-77
2022/12/11 01:06:03;;;;;;;0.60;0.60;;;;;;;-6.13;100.00;100519.88;4999155;28;20145;-77
2022/12/11 01:08:29;;;;;;;0.50;0.50;;;;;;;-6.22;100.00;100527.28;4999242;28;20045;-76
2022/12/11 01:11:03;;;;;;;0.50;0.50;;;;;;;-6.31;100.00;100526.84;4999211;28;20025;-74
2022/12/11 01:13:29;;;;;;;0.50;0.50;;;;;;;-6.44;100.00;100521.38;4999098;28;20026;-76
2022/12/11 01:15:55;;;;;;;0.50;0.50;;;;;;;-6.44;100.00;100529.22;5015500;28;20107;-77
2022/12/11 01:18:20;;;;;;;0.50;0.50;;;;;;;-6.48;100.00;100530.28;4999103;28;20033;-76
2022/12/11 01:20:46;;;;;;;0.50;0.50;;;;;;;-6.60;100.00;100534.31;4999185;28;20038;-77
2022/12/11 01:23:12;;;;;;;0.50;0.50;;;;;;;-6.71;100.00;100537.44;4999294;28;20034;-76
2022/12/11 01:25:38;;;;;;;0.50;0.50;;;;;;;-6.83;100.00;100534.53;4999067;28;20041;-76
2022/12/11 01:28:04;;;;;;;0.50;0.50;;;;;;;-6.81;100.00;100536.16;4998939;28;20356;-77
2022/12/11 01:30:30;;;;;;;0.50;0.50;;;;;;;-6.83;100.00;100534.53;4999223;28;20080;-76
2022/12/11 01:32:56;;;;;;;0.50;0.50;;;;;;;-6.78;100.00;100541.25;4998818;28;20468;-76
2022/12/11 01:35:22;;;;;;;0.50;0.50;;;;;;;-6.70;100.00;100539.13;4999015;28;20090;-77
2022/12/11 01:37:48;;;;;;;0.50;0.50;;;;;;;-6.68;100.00;100547.75;5015509;28;20026;-77
2022/12/11 01:40:16;;;;;;;0.50;0.50;;;;;;;-6.67;100.00;100545.97;4999045;28;20467;-76
2022/12/11 01:42:41;;;;;;;0.50;0.50;;;;;;;-6.76;100.00;100546.41;5015057;28;20053;-76
2022/12/11 01:45:30;;;;;;;0.50;0.50;;;;;;;-6.86;100.00;100548.59;4999065;28;20387;-76
2022/12/11 01:48:09;;;;;;;0.50;0.50;;;;;;;-6.89;100.00;100546.13;4998528;28;20056;-76
2022/12/11 01:50:48;;;;;;;0.50;0.50;;;;;;;-6.84;100.00;100557.22;5048109;28;20029;-76
2022/12/11 01:53:17;;;;;;;0.55;0.55;;;;;;;-6.83;100.00;100558.06;5034975;28;20026;-76
2022/12/11 01:55:45;;;;;;;0.50;0.50;;;;;;;-6.81;100.00;100564.91;5035033;28;20030;-77
2022/12/11 01:58:11;;;;;;;0.50;0.50;;;;;;;-6.87;100.00;100560.81;5002179;28;20029;-77
2022/12/11 02:00:37;;;;;;;0.50;0.50;;;;;;;-6.86;100.00;100554.66;5034962;28;20120;-75
2022/12/11 02:03:03;;;;;;;0.50;0.50;;;;;;;-6.84;100.00;100562.44;5002301;28;20546;-77
2022/12/11 02:05:29;;;;;;;0.60;0.60;;;;;;;-6.85;100.00;100576.44;5018408;28;20047;-76
2022/12/11 02:07:58;;;;;;;0.50;0.50;;;;;;;-6.93;100.00;100565.47;5002225;28;20029;-76
2022/12/11 02:10:48;;;;;;;0.50;0.50;;;;;;;-6.96;100.00;100565.59;5034776;28;20121;-76
2022/12/11 02:13:28;;;;;;;0.50;0.50;;;;;;;-6.93;100.00;100573.31;5017542;28;20029;-77
2022/12/11 02:15:54;;;;;;;0.50;0.50;;;;;;;-6.93;100.00;100552.41;5018401;28;20128;-77
2022/12/11 02:19:10;;;;;;;0.50;0.50;;;;;;;-6.75;100.00;100561.19;5018317;28;20120;-76
2022/12/11 02:21:41;;;;;;;0.50;0.50;;;;;;;-6.72;100.00;100561.91;5013195;28;20034;-76
2022/12/11 02:24:42;;;;;;;0.50;0.50;;;;;;;-6.79;100.00;100564.88;5018246;28;20052;-77
2022/12/11 02:27:17;;;;;;;0.50;0.50;;;;;;;-6.94;100.00;100563.78;5001466;28;20431;-77
2022/12/11 02:29:48;;;;;;;0.50;0.50;;;;;;;-6.95;100.00;100575.16;5018442;28;20428;-77
2022/12/11 02:32:20;;;;;;;0.60;0.60;;;;;;;-6.94;100.00;100567.25;5018067;28;20026;-77
2022/12/11 02:34:50;;;;;;;0.50;0.50;;;;;;;-6.87;100.00;100573.06;5017618;28;20369;-77
2022/12/11 02:37:19;;;;;;;0.50;0.50;;;;;;;-6.86;100.00;100567.75;5018119;28;20049;-76
2022/12/11 02:39:46;;;;;;;0.50;0.50;;;;;;;-6.92;100.00;100554.13;5017897;28;20028;-77
2022/12/11 02:42:13;;;;;;;0.50;0.50;;;;;;;-6.77;100.00;100574.34;5001728;28;20073;-76
2022/12/11 02:44:41;;;;;;;0.50;0.50;;;;;;;-6.74;100.00;100573.34;5001544;28;20117;-77
2022/12/11 02:47:14;;;;;;;0.50;0.50;;;;;;;-6.69;100.00;100574.00;5034015;28;20081;-77
2022/12/11 02:49:43;;;;;;;0.60;0.60;;;;;;;-6.67;100.00;100566.91;5017669;28;20040;-76
2022/12/11 02:52:10;;;;;;;0.50;0.50;;;;;;;-6.74;100.00;100571.56;5000386;28;20064;-76
2022/12/11 02:54:37;;;;;;;0.55;0.55;;;;;;;-6.81;100.00;100570.16;5049874;28;20076;-76
2022/12/11 02:57:07;;;;;;;1.60;1.08;;;;;;;-6.86;100.00;100564.28;5001479;28;20041;-76
2022/12/11 02:59:38;;;;;;;0.90;0.90;;;;;;;-6.92;100.00;100561.97;5001324;28;20476;-77
2022/12/11 03:02:09;;;;;;;0.82;0.82;;;;;;;-6.96;100.00;100565.59;5001806;28;20037;-76
2022/12/11 03:04:35;;;;;;;0.88;0.88;;;;;;;-6.96;100.00;100560.38;5017103;28;20104;-76
2022/12/11 03:07:12;;;;;;;0.82;0.82;;;;;;;-6.96;100.00;100557.78;5017079;28;20444;-76
2022/12/11 03:09:39;;;;;;;1.20;1.20;;;;;;;-7.04;100.00;100546.81;5033422;28;20104;-77
2022/12/11 03:12:07;;;;;;;0.55;0.55;;;;;;;-6.96;100.00;100553.41;5000867;28;20479;-77
2022/12/11 03:14:33;;;;;;;0.50;0.50;;;;;;;-6.94;100.00;100548.09;5001269;28;20128;-77
2022/12/11 03:17:04;;;;;;;0.50;0.50;;;;;;;-6.89;100.00;100541.75;5017346;28;20387;-76
2022/12/11 03:19:39;;;;;;;0.50;0.50;;;;;;;-6.90;100.00;100537.44;5017014;28;20486;-77
2022/12/11 03:22:16;;;;;;;0.50;0.50;;;;;;;-6.86;100.00;100538.13;5017010;28;20068;-77
2022/12/11 03:24:42;;;;;;;0.50;0.50;;;;;;;-6.90;100.00;100532.22;5016969;28;20045;-77
2022/12/11 03:27:39;;;;;;;0.50;0.50;;;;;;;-6.93;100.00;100539.34;5016990;28;20048;-76
2022/12/11 03:30:07;;;;;;;0.50;0.50;;;;;;;-6.96;100.00;100531.63;5017129;28;20033;-76
2022/12/11 03:32:57;;;;;;;0.55;0.55;;;;;;;-7.07;100.00;100540.81;5016688;28;20029;-77
2022/12/11 03:35:27;;;;;;;0.50;0.50;;;;;;;-7.16;100.00;100537.78;5016920;28;20084;-76
2022/12/11 03:37:53;;;;;;;4.97;4.68;;;;;;;-7.30;100.00;100546.22;5000492;28;20038;-77
2022/12/11 03:40:21;;;;;;;3.10;2.90;;;;;;;-7.43;100.00;100539.84;5000431;28;20037;-77
2022/12/11 03:42:49;;;;;;;0.55;0.55;;;;;;;-7.45;100.00;100554.72;5016930;28;20112;-75
2022/12/11 03:45:17;;;;;;;0.50;0.50;;;;;;;-7.48;100.00;100557.47;5016741;28;20044;-76
2022/12/11 03:47:44;;;;;;;0.50;0.50;;;;;;;-7.54;100.00;100556.81;5000039;28;20553;-76
2022/12/11 03:50:12;;;;;;;2.25;2.15;;;;;;;-7.54;100.00;100555.94;5033077;28;20038;-76
2022/12/11 03:52:40;;;;;;;1.00;0.95;;;;;;;-7.54;100.00;100554.22;5000165;28;20033;-77
2022/12/11 03:55:06;;;;;;;0.50;0.50;;;;;;;-7.46;100.00;100548.66;5016443;28;20045;-76
2022/12/11 03:57:35;;;;;;;0.50;0.50;;;;;;;-7.52;100.00;100554.97;5000307;28;20526;-77
2022/12/11 04:00:03;;;;;;;0.77;0.77;;;;;;;-7.60;100.00;100556.22;5015951;28;20040;-76
2022/12/11 04:02:29;;;;;;;2.20;2.03;;;;;;;-7.69;100.00;100547.03;5016192;28;20048;-76
2022/12/11 04:04:55;;;;;;;0.50;0.50;;;;;;;-7.70;100.00;100549.69;5000116;28;20602;-76
2022/12/11 04:07:21;;;;;;;0.50;0.50;;;;;;;-7.71;100.00;100554.06;4999540;28;20120;-76
2022/12/11 04:10:03;;;;;;;0.60;0.60;;;;;;;-7.74;100.00;100547.22;5016156;28;20048;-76
2022/12/11 04:12:29;;;;;;;0.60;0.60;;;;;;;-7.73;100.00;100545.44;5032536;28;20471;-77
2022/12/11 04:15:01;;;;;;;0.50;0.50;;;;;;;-7.70;100.00;100554.91;5015856;28;20281;-77
2022/12/11 04:25:40;;;;;;;0.50;0.50;;;;;;;-7.91;100.00;100538.38;5018628;28;20032;-76
2022/12/11 04:28:06;;;;;;;1.40;1.40;;;;;;;-7.99;100.00;100550.00;4999528;28;20041;-76
2022/12/11 04:30:31;;;;;;;1.98;1.92;;;;;;;-8.02;100.00;100544.94;5015995;28;20430;-76
2022/12/11 04:32:57;;;;;;;0.60;0.60;;;;;;;-7.90;100.00;100540.09;4999451;28;20025;-77
2022/12/11 04:35:23;;;;;;;0.50;0.50;;;;;;;-7.80;100.00;100534.44;5032305;28;20063;-77
2022/12/11 04:37:49;;;;;;;0.50;0.50;;;;;;;-7.67;100.00;100542.59;4999814;28;20116;-76
2022/12/11 04:40:16;;;;;;;0.50;0.50;;;;;;;-7.58;100.00;100542.19;5015824;28;20045;-76
2022/12/11 04:42:42;;;;;;;0.50;0.50;;;;;;;-7.55;100.00;100544.66;4999829;28;20036;-77
2022/12/11 04:45:08;;;;;;;0.50;0.50;;;;;;;-7.54;100.00;100542.91;5016053;28;20025;-76
2022/12/11 04:47:36;;;;;;;0.50;0.50;;;;;;;-7.49;100.00;100548.78;5016080;28;20029;-76
2022/12/11 04:50:03;;;;;;;0.50;0.50;;;;;;;-7.43;100.00;100545.06;4999585;28;20407;-77
2022/12/11 04:52:29;;;;;;;0.50;0.50;;;;;;;-7.39;100.00;100539.63;4999452;28;20487;-76
2022/12/11 04:54:55;;;;;;;0.50;0.50;;;;;;;-7.37;100.00;100547.41;5015944;28;20034;-76
2022/12/11 04:57:21;;;;;;;0.50;0.50;;;;;;;-7.39;100.00;100547.47;5016152;28;20037;-76
2022/12/11 04:59:47;;;;;;;0.50;0.50;;;;;;;-7.36;100.00;100541.25;5015966;28;20030;-77
2022/12/11 05:02:14;;;;;;;0.50;0.50;;;;;;;-7.36;100.00;100538.66;4999697;28;20060;-76
2022/12/11 05:04:40;;;;;;;0.50;0.50;;;;;;;-7.35;100.00;100537.75;5032184;28;20061;-75
2022/12/11 05:07:08;;;;;;;0.50;0.50;;;;;;;-7.30;100.00;100536.63;5015452;28;20451;-76
2022/12/11 05:09:34;;;;;;;0.50;0.50;;;;;;;-7.27;100.00;100538.25;4999813;28;20175;-76
2022/12/11 05:12:00;;;;;;;0.50;0.50;;;;;;;-7.32;100.00;100533.22;4999875;28;20045;-76
2022/12/11 05:14:29;;;;;;;0.50;0.50;;;;;;;-7.33;100.00;100542.00;4999390;28;20380;-76
2022/12/11 05:16:54;;;;;;;0.50;0.50;;;;;;;-7.33;100.00;100547.22;4999854;28;20095;-77
2022/12/11 05:19:22;;;;;;;0.50;0.50;;;;;;;-7.37;100.00;100542.19;5015751;28;20041;-77
2022/12/11 05:21:48;;;;;;;0.80;0.80;;;;;;;-7.28;100.00;100552.22;5015734;28;20159;-77
2022/12/11 05:24:14;;;;;;;0.60;0.60;;;;;;;-7.24;100.00;100552.94;5015718;28;20124;-76
2022/12/11 05:26:39;;;;;;;1.58;1.58;;;;;;;-7.31;100.00;100552.34;5001270;28;20025;-77
2022/12/11 05:29:05;;;;;;;0.50;0.50;;;;;;;-7.30;100.00;100565.34;5019159;28;20411;-77
2022/12/11 05:31:31;;;;;;;0.57;0.57;;;;;;;-7.37;100.00;100563.91;5019418;28;20059;-76
2022/12/11 05:33:56;;;;;;;0.60;0.60;;;;;;;-7.40;100.00;100558.84;5003136;28;20088;-77
2022/12/11 05:36:27;;;;;;;0.50;0.50;;;;;;;-7.36;100.00;100556.94;5003196;28;20045;-76
2022/12/11 05:38:53;;;;;;;0.57;0.57;;;;;;;-7.35;100.00;100551.66;5019101;28;20122;-76
2022/12/11 05:41:21;;;;;;;0.50;0.50;;;;;;;-7.41;100.00;100546.72;5002823;28;20063;-76
2022/12/11 05:43:47;;;;;;;0.50;0.50;;;;;;;-7.40;100.00;100558.00;5018829;28;20518;-77
2022/12/11 05:46:20;;;;;;;1.02;1.02;;;;;;;-7.40;100.00;100552.78;5018651;28;20041;-77
2022/12/11 05:48:48;;;;;;;0.53;0.53;;;;;;;-7.41;100.00;100553.66;5018509;28;20032;-77
2022/12/11 05:51:15;;;;;;;0.57;0.57;;;;;;;-7.37;100.00;100561.31;5035319;28;20037;-77
2022/12/11 05:53:41;;;;;;;0.90;0.90;;;;;;;-7.32;100.00;100561.97;5002399;28;20364;-77
2022/12/11 05:56:10;;;;;;;0.57;0.57;;;;;;;-7.24;100.00;100564.25;5034756;28;20104;-77
2022/12/11 05:58:36;;;;;;;0.50;0.50;;;;;;;-7.13;100.00;100577.66;5002570;28;20041;-76
2022/12/11 06:01:06;;;;;;;0.50;0.50;;;;;;;-7.05;100.00;100568.66;5002441;28;20033;-76
2022/12/11 06:03:32;;;;;;;0.60;0.60;;;;;;;-7.04;100.00;100567.72;5002432;28;20158;-76
2022/12/11 06:06:01;;;;;;;0.50;0.50;;;;;;;-7.08;100.00;100560.03;5018484;28;20454;-76
2022/12/11 06:08:27;;;;;;;0.98;0.98;;;;;;;-7.13;100.00;100556.78;5018502;28;20029;-77
2022/12/11 06:10:53;;;;;;;0.50;0.50;;;;;;;-7.15;100.00;100553.38;5002244;28;20040;-76
2022/12/11 06:13:19;;;;;;;0.50;0.50;;;;;;;-7.12;100.00;100541.94;5001963;28;20040;-77
2022/12/11 06:15:45;;;;;;;0.50;0.50;;;;;;;-7.03;100.00;100548.53;5018130;28;20091;-76
2022/12/11 06:18:11;;;;;;;0.50;0.50;;;;;;;-7.02;100.00;100550.22;5035097;28;20029;-77
2022/12/11 06:20:37;;;;;;;0.50;0.50;;;;;;;-7.01;100.00;100546.66;5001854;28;20436;-77
2022/12/11 06:23:02;;;;;;;0.50;0.50;;;;;;;-6.87;100.00;100557.38;5002062;28;20029;-77
2022/12/11 06:25:29;;;;;;;0.50;0.50;;;;;;;-6.81;100.00;100543.16;5018449;28;20041;-76
2022/12/11 06:27:54;;;;;;;0.50;0.50;;;;;;;-6.77;100.00;100545.56;5001912;28;20037;-76
2022/12/11 06:30:20;;;;;;;0.50;0.50;;;;;;;-6.71;100.00;100552.28;5018077;28;20045;-76
2022/12/11 06:32:46;;;;;;;0.50;0.50;;;;;;;-6.71;100.00;100547.06;5001502;28;20384;-77
2022/12/11 06:35:12;;;;;;;0.50;0.50;;;;;;;-6.67;100.00;100539.00;5017544;28;20026;-74
2022/12/11 06:37:39;;;;;;;0.50;0.50;;;;;;;-6.65;100.00;100544.16;5033495;28;20036;-77
2022/12/11 06:40:06;;;;;;;0.50;0.50;;;;;;;-6.60;100.00;100543.94;5034063;28;20470;-77
2022/12/11 06:42:32;;;;;;;0.50;0.50;;;;;;;-6.56;100.00;100551.56;5001367;28;20042;-77
2022/12/11 06:44:58;;;;;;;0.50;0.50;;;;;;;-6.57;100.00;100549.88;5017903;28;20121;-77
2022/12/11 06:47:29;;;;;;;0.60;0.60;;;;;;;-6.61;100.00;100550.06;5001675;28;20033;-77
2022/12/11 06:49:55;;;;;;;0.50;0.50;;;;;;;-6.69;100.00;100545.22;5001526;28;20033;-78
2022/12/11 06:52:22;;;;;;;0.50;0.50;;;;;;;-6.86;100.00;100543.38;5017082;28;20022;-77
2022/12/11 06:54:48;;;;;;;0.60;0.60;;;;;;;-6.92;100.00;100551.50;5017531;28;20459;-78
2022/12/11 06:57:14;;;;;;;0.50;0.50;;;;;;;-7.01;100.00;100544.94;5017447;28;20039;-78
2022/12/11 06:59:40;;;;;;;0.50;0.50;;;;;;;-7.09;100.00;100540.06;5001216;28;20037;-77
2022/12/11 07:02:11;;;;;;;0.50;0.50;;;;;;;-7.05;100.00;100559.03;5017665;28;20032;-77
2022/12/11 07:04:36;;;;;;;0.50;0.50;;;;;;;-7.13;100.00;100551.53;5017604;28;20107;-77
2022/12/11 07:07:02;;;;;;;0.50;0.50;;;;;;;-7.15;100.00;100560.38;5017470;28;20479;-77
2022/12/11 07:09:28;;;;;;;0.60;0.60;;;;;;;-7.18;100.00;100550.06;5001199;28;20471;-77
2022/12/11 07:11:53;;;;;;;0.50;0.50;;;;;;;-7.13;100.00;100555.94;5033041;28;20017;-76
2022/12/11 07:14:19;;;;;;;0.50;0.50;;;;;;;-7.14;100.00;100565.53;5017425;28;20091;-76
2022/12/11 07:16:45;;;;;;;0.60;0.60;;;;;;;-7.20;100.00;100557.94;5000944;28;20029;-76
2022/12/11 07:19:11;;;;;;;0.50;0.50;;;;;;;-7.17;100.00;100572.63;5017194;28;20120;-77
2022/12/11 07:21:36;;;;;;;0.50;0.50;;;;;;;-7.19;100.00;100561.44;5000744;28;20033;-76
2022/12/11 07:24:02;;;;;;;0.50;0.50;;;;;;;-7.19;100.00;100558.81;5016903;28;20132;-76
2022/12/11 07:26:28;;;;;;;0.50;0.50;;;;;;;-7.17;100.00;100570.03;5016942;28;20079;-76
2022/12/11 07:28:57;;;;;;;0.50;0.50;;;;;;;-7.19;100.00;100577.94;5033496;28;20045;-77
2022/12/11 07:31:24;;;;;;;0.50;0.50;;;;;;;-7.20;100.00;100572.78;5032701;28;20080;-76
2022/12/11 07:33:54;;;;;;;0.50;0.50;;;;;;;-7.25;100.00;100562.56;5016415;28;20056;-76
2022/12/11 07:36:21;;;;;;;0.55;0.55;;;;;;;-7.27;100.00;100576.59;5000602;28;20475;-77
2022/12/11 07:38:46;;;;;;;0.50;0.50;;;;;;;-7.38;100.00;100567.47;5000538;28;20121;-76
2022/12/11 07:41:13;;;;;;;0.50;0.50;;;;;;;-7.48;100.00;100578.38;5016541;28;20073;-76
2022/12/11 07:43:40;;;;;;;7.15;2.75;;;;;;;-7.62;100.00;100574.59;5016976;28;20095;-77
2022/12/11 07:46:11;;;;;;;0.50;0.50;;;;;;;-7.65;100.00;100577.28;5000698;28;20047;-76
2022/12/11 07:48:38;;;;;;;0.50;0.50;;;;;;;-7.62;100.00;100578.94;5032132;28;20018;-76
2022/12/11 07:51:25;;;;;;;0.50;0.50;;;;;;;-7.54;100.00;100585.56;5000085;28;20384;-77
2022/12/11 07:53:52;;;;;;;0.50;0.50;;;;;;;-7.50;100.00;100578.44;5016485;28;20391;-77
2022/12/11 07:56:18;;;;;;;0.50;0.50;;;;;;;-7.54;100.00;100582.94;5000253;28;20084;-76
2022/12/11 07:58:45;;;;;;;0.50;0.50;;;;;;;-7.61;100.00;100581.50;5015854;28;20073;-76
2022/12/11 08:01:12;;;;;;;0.50;0.50;;;;;;;-7.69;100.00;100572.28;5015991;28;20029;-76
2022/12/11 08:03:38;;;;;;;0.50;0.50;;;;;;;-7.67;100.00;100583.50;5000034;28;20064;-77
2022/12/11 08:06:04;;;;;;;0.50;0.50;;;;;;;-7.66;100.00;100587.81;5000018;28;20072;-77
2022/12/11 08:08:30;;;;;;;0.50;0.50;;;;;;;-7.70;100.00;100601.91;5015680;28;20606;-76
2022/12/11 08:11:00;;;;;;;0.60;0.60;;;;;;;-7.84;100.00;100592.03;4999904;28;20033;-75
2022/12/11 08:13:26;;;;;;;0.55;0.55;;;;;;;-7.89;100.00;100601.81;4999450;28;20084;-76
2022/12/11 08:15:52;;;;;;;0.50;0.50;;;;;;;-8.00;100.00;100604.84;4999881;28;20037;-75
2022/12/11 08:18:17;;;;;;;0.55;0.55;;;;;;;-8.12;100.00;100603.59;5015836;28;20384;-76
2022/12/11 08:20:43;;;;;;;0.57;0.57;;;;;;;-8.22;100.00;100600.50;4999635;28;20087;-76
2022/12/11 08:23:09;;;;;;;0.50;0.50;;;;;;;-8.34;100.00;100600.97;5015853;28;20022;-76
2022/12/11 08:25:35;;;;;;;0.60;0.60;;;;;;;-8.45;100.00;100598.81;5015938;28;20379;-76
2022/12/11 08:28:00;;;;;;;0.50;0.50;;;;;;;-8.49;100.00;100612.03;5015661;28;20033;-77
2022/12/11 08:30:26;;;;;;;0.50;0.50;;;;;;;-8.44;100.00;100605.75;4999497;28;20029;-76
2022/12/11 08:32:52;;;;;;;0.60;0.60;;;;;;;-8.37;100.00;100608.06;5015391;28;20533;-76
2022/12/11 08:35:18;;;;;;;0.50;0.50;;;;;;;-8.31;100.00;100613.03;4999532;28;20025;-77
2022/12/11 08:37:43;;;;;;;0.55;0.55;;;;;;;-8.23;100.00;100610.97;5015438;28;20040;-76
2022/12/11 08:40:11;;;;;;;0.50;0.50;;;;;;;-8.22;100.00;100602.28;4999523;28;20026;-76
2022/12/11 08:42:37;;;;;;;0.50;0.50;;;;;;;-8.19;100.00;100604.75;5032222;28;20540;-76
2022/12/11 08:45:03;;;;;;;0.50;0.50;;;;;;;-8.26;100.00;100593.69;5015997;28;20052;-76
2022/12/11 08:47:29;;;;;;;0.60;0.60;;;;;;;-8.27;100.00;100601.59;5015393;28;20055;-75
2022/12/11 08:49:55;;;;;;;0.50;0.50;;;;;;;-8.28;100.00;100605.97;5031771;28;20411;-76
2022/12/11 08:52:21;;;;;;;0.52;0.52;;;;;;;-8.24;100.00;100607.53;5015305;28;20025;-77
2022/12/11 08:54:47;;;;;;;0.60;0.60;;;;;;;-8.18;100.00;100609.03;5015747;28;20041;-76
2022/12/11 08:57:13;;;;;;;0.50;0.50;;;;;;;-8.16;100.00;100616.81;5015716;28;20420;-75
2022/12/11 08:59:39;;;;;;;0.50;0.50;;;;;;;-8.21;100.00;100619.59;5015830;28;20156;-76
2022/12/11 09:02:05;;;;;;;0.50;0.50;;;;;;;-8.27;100.00;100614.63;5003188;28;20472;-75
2022/12/11 09:04:31;;;;;;;0.52;0.52;;;;;;;-8.39;100.00;100613.38;5003553;28;20480;-76
2022/12/11 09:06:57;;;;;;;0.50;0.50;;;;;;;-8.39;100.00;100622.94;5003431;28;20120;-75
2022/12/11 09:09:23;;;;;;;0.60;0.60;;;;;;;-8.44;100.00;100626.59;5019506;28;20559;-75
2022/12/11 09:11:49;;;;;;;0.55;0.55;;;;;;;-8.40;100.00;100629.94;5003079;28;20383;-78
2022/12/11 09:14:15;;;;;;;0.60;0.60;;;;;;;-8.34;100.00;100618.38;5003198;28;20388;-75
2022/12/11 09:16:41;;;;;;;3.25;3.05;;;;;;;-8.31;100.00;100626.94;5003105;28;20124;-77
2022/12/11 09:19:10;;;;;;;0.50;0.50;;;;;;;-8.31;100.00;100619.09;5002834;28;20175;-78
2022/12/11 09:21:36;;;;;;;0.50;0.50;;;;;;;-8.31;100.00;100621.72;5019318;28;20041;-75
2022/12/11 09:24:01;;;;;;;0.60;0.60;;;;;;;-8.31;100.00;100619.09;5003044;28;20435;-76
2022/12/11 09:26:28;;;;;;;0.50;0.50;;;;;;;-8.35;100.00;100622.75;5002240;28;20030;-76
2022/12/11 09:28:55;;;;;;;0.50;0.50;;;;;;;-8.31;100.00;100615.66;5002663;28;20052;-76
2022/12/11 09:31:24;;;;;;;0.50;0.50;;;;;;;-8.18;100.00;100632.53;5002516;28;20036;-76
2022/12/11 09:33:52;;;;;;;0.60;0.60;;;;;;;-7.99;100.00;100630.91;5002233;28;20049;-75
2022/12/11 09:36:18;;;;;;;0.50;0.50;;;;;;;-7.72;100.00;100635.91;5002196;28;20116;-76
2022/12/11 09:38:45;;;;;;;0.50;0.50;;;;;;;-7.46;100.00;100627.00;5018762;28;20099;-76
2022/12/11 09:41:20;;;;;;;0.60;0.60;;;;;;;-7.26;100.00;100623.53;5018675;28;20606;-75
2022/12/11 09:44:06;;;;;;;0.50;0.50;;;;;;;-6.97;100.00;100629.25;5035165;28;20025;-76
2022/12/11 09:46:33;;;;;;;0.50;0.50;;;;;;;-6.61;100.00;100634.63;5036037;28;20033;-76
2022/12/11 09:49:00;;;;;;;0.60;0.60;;;;;;;-6.29;100.00;100648.84;5002447;28;20036;-76
2022/12/11 09:51:41;;;;;;;0.50;0.50;;;;;;;-6.15;100.00;100635.09;5002254;28;20040;-76
2022/12/11 09:54:10;;;;;;;0.60;0.60;;;;;;;-5.83;100.00;100620.44;5035061;28;20025;-76
2022/12/11 09:56:48;;;;;;;0.60;0.60;;;;;;;-5.41;100.00;100623.63;5034924;28;20052;-76
2022/12/11 09:59:28;;;;;;;0.50;0.50;;;;;;;-5.21;100.00;100622.59;5019918;28;20083;-76
2022/12/11 10:02:00;;;;;;;0.60;0.60;;;;;;;-5.05;100.00;100622.66;5018588;28;20472;-76
2022/12/11 10:04:35;;;;;;;0.60;0.60;;;;;;;-4.92;100.00;100616.72;5002805;28;20032;-76
2022/12/11 10:07:38;;;;;;;0.60;0.60;;;;;;;-4.23;100.00;100617.41;5018644;28;20033;-76
2022/12/11 10:10:29;;;;;;;0.68;0.68;;;;;;;-3.10;100.00;100626.66;5035020;28;20549;-76
2022/12/11 10:13:34;;;;;;;0.77;0.77;;;;;;;-1.61;100.00;100608.56;5034059;28;20036;-77
2022/12/11 10:16:08;;;;;;;0.75;0.75;;;;;;;-0.79;96.67;100617.09;5018560;28;20463;-77
2022/12/11 10:18:34;;;;;;;0.70;0.70;;;;;;;0.15;95.34;100619.19;5034860;28;20029;-77
2022/12/11 10:21:00;;;;;;;0.80;0.80;;;;;;;0.85;91.23;100613.09;5034694;28;20059;-78
2022/12/11 10:23:37;;;;;;;0.80;0.80;;;;;;;1.37;90.44;100610.84;5017984;28;20491;-77
2022/12/11 10:26:07;;;;;;;0.70;0.70;;;;;;;1.96;90.93;100623.81;5002776;28;20037;-80
2022/12/11 10:28:33;;;;;;;0.70;0.70;;;;;;;1.92;91.75;100614.41;5018031;28;20082;-78
2022/12/11 10:31:09;;;;;;;0.60;0.60;;;;;;;1.35;93.06;100615.41;5034749;28;20124;-78
2022/12/11 10:33:45;;;;;;;0.60;0.60;;;;;;;1.36;94.08;100627.72;5018112;28;20034;-79
2022/12/11 10:36:12;;;;;;;0.60;0.60;;;;;;;1.07;93.27;100631.66;5034754;28;20041;-78
2022/12/11 10:38:42;;;;;;;0.60;0.60;;;;;;;1.07;94.87;100618.41;5001935;28;20147;-79
2022/12/11 10:41:14;;;;;;;0.70;0.70;;;;;;;1.60;93.18;100620.47;5001655;28;20079;-79
2022/12/11 10:43:42;;;;;;;0.60;0.60;;;;;;;1.67;93.62;100620.84;5035047;28;20545;-79
2022/12/11 10:46:36;;;;;;;0.60;0.60;;;;;;;1.27;91.75;100598.34;5017580;28;20487;-79
2022/12/11 10:49:02;;;;;;;0.60;0.60;;;;;;;1.30;92.16;100619.28;5017327;28;20104;-77
2022/12/11 10:51:31;;;;;;;3.97;3.67;;;;;;;0.60;97.38;100619.38;5033844;28;20503;-79
2022/12/11 10:54:06;;;;;;;0.60;0.60;;;;;;;0.71;97.35;100624.69;5017882;28;20040;-78
2022/12/11 10:56:33;;;;;;;0.73;0.73;;;;;;;0.14;99.05;100614.88;5017767;28;20029;-77
2022/12/11 10:58:59;;;;;;;0.60;0.60;;;;;;;0.25;97.32;100627.28;5001205;28;20033;-78
2022/12/11 11:01:27;;;;;;;0.60;0.60;;;;;;;0.18;97.50;100598.63;5001331;28;20030;-79
2022/12/11 11:04:05;;;;;;;0.60;0.60;;;;;;;0.56;97.15;100626.72;5001251;28;20037;-78
2022/12/11 11:06:32;;;;;;;0.60;0.60;;;;;;;0.70;98.28;100630.97;5001185;28;20034;-77
2022/12/11 11:09:00;;;;;;;0.68;0.68;;;;;;;0.95;96.49;100634.38;5033909;28;20423;-77
2022/12/11 11:11:28;;;;;;;0.60;0.60;;;;;;;1.12;95.21;100631.31;5033700;28;20030;-77
2022/12/11 11:14:23;;;;;;;0.60;0.60;;;;;;;0.53;98.18;100626.06;5033714;28;20037;-77
2022/12/11 11:16:51;;;;;;;0.60;0.60;;;;;;;0.51;97.68;100626.22;5028892;28;20045;-77
2022/12/11 11:19:31;;;;;;;0.60;0.60;;;;;;;0.85;97.40;100613.94;5000996;28;20563;-77
2022/12/11 11:22:20;;;;;;;0.57;0.57;;;;;;;0.13;100.00;100624.59;5018150;28;20038;-80
2022/12/11 11:24:52;;;;;;;0.60;0.60;;;;;;;0.25;99.56;100616.72;5015698;28;20551;-78
2022/12/11 11:27:27;;;;;;;0.50;0.50;;;;;;;0.19;99.39;100620.66;5017393;28;20033;-82
2022/12/11 11:29:54;;;;;;;0.50;0.50;;;;;;;-0.17;100.00;100625.00;5017217;28;20029;-77
2022/12/11 11:32:37;;;;;;;0.50;0.50;;;;;;;-0.48;100.00;100600.78;5016610;28;20029;-77
2022/12/11 11:35:12;;;;;;;0.60;0.60;;;;;;;0.07;99.75;100608.31;5033688;28;20124;-77